Jpo Aquarius — CQHE — position and weather

sailwx.info

Track history (hours):
 
Tides and Currents Weather Stations Pressure Air Temp Water Temp Dewpoint Dewpoint Depression Visibility Wind Speed Wind Dir Waves Ship Positions

Jpo Aquarius

Last reported at 2018-Aug-19 16:00 UTC. Time now 2018-Aug-20 16:49 UTC.
Position N 25°29' W 079°26'.

Length 207 m; draft 9.7 m.

Type: Ship. MMSI: 255805580.

Date/timePositionNaut miles runAvg speedWind from/ knotsBaromVisibWave heightAir tempDewpointWater temp
2018-Aug-19 16:00N 25°29' W 079°26'815.4
2018-Aug-19 15:30N 25°36' W 079°28'715.0
2018-Aug-19 15:00N 25°42' W 079°33'612.8
2018-Aug-19 14:30N 25°47' W 079°37'510.1
2018-Aug-19 14:00N 25°51' W 079°41'510.1
2018-Aug-19 13:31N 25°54' W 079°45'5 9.9
2018-Aug-19 13:01N 25°57' W 079°50'5 9.4
2018-Aug-19 12:31N 25°60' W 079°54'5 9.6
2018-Aug-19 12:00N 26°02' W 079°58'611.2
2018-Aug-19 11:31N 26°05' W 080°04'2 5.0
2018-Aug-19 11:00N 26°05' W 080°07'1 1.6
2018-Aug-19 10:30N 26°04' W 080°07'0 0.0
2018-Aug-19 09:53N 26°04' W 080°07'0 0.0
2018-Aug-19 09:23N 26°04' W 080°07'0 0.0
2018-Aug-19 09:00N 26°04' W 080°07'0 0.0
2018-Aug-19 08:22N 26°04' W 080°07'0 0.0
2018-Aug-19 07:52N 26°04' W 080°07'0 0.0
2018-Aug-19 07:25N 26°04' W 080°07'0 0.0
2018-Aug-19 06:55N 26°04' W 080°07'0 0.0
2018-Aug-19 06:28N 26°04' W 080°07'0 0.0
2018-Aug-19 05:59N 26°04' W 080°07'0 0.0
2018-Aug-19 05:29N 26°04' W 080°07'0 0.0
2018-Aug-19 04:50N 26°04' W 080°07'0 0.0
2018-Aug-19 04:20N 26°04' W 080°07'0 0.0
2018-Aug-19 03:53N 26°04' W 080°07'0 0.0
2018-Aug-19 03:23N 26°04' W 080°07'0 0.0
2018-Aug-19 02:53N 26°04' W 080°07'0 0.0
2018-Aug-19 02:20N 26°04' W 080°07'0 0.0
2018-Aug-19 01:53N 26°04' W 080°07'0 0.0
2018-Aug-19 01:29N 26°04' W 080°07'0 0.0
2018-Aug-19 00:58N 26°04' W 080°07'0 0.0
2018-Aug-19 00:22N 26°04' W 080°07'0 0.0
2018-Aug-18 23:55N 26°04' W 080°07'0 0.0
2018-Aug-18 23:25N 26°04' W 080°07'0 0.0
2018-Aug-18 22:55N 26°04' W 080°07'0 0.4
2018-Aug-18 22:30N 26°04' W 080°07'2 3.6
2018-Aug-18 22:00N 26°06' W 080°05'3 5.7
2018-Aug-18 21:30N 26°07' W 080°02'1 2.0
2018-Aug-18 21:00N 26°06' W 080°02'2 4.2
2018-Aug-18 20:30N 26°06' W 079°59'4 7.1
2018-Aug-18 20:00N 26°06' W 079°55'4 7.2
2018-Aug-18 19:30N 26°08' W 079°52'4 8.0
2018-Aug-18 19:00N 26°09' W 079°47'5 9.2
2018-Aug-18 18:30N 26°11' W 079°43'4 8.8
2018-Aug-18 18:00N 26°12' W 079°38'4 8.8
2018-Aug-18 17:30N 26°13' W 079°33'4 9.0
2018-Aug-18 17:00N 26°14' W 079°28'5 9.4
2018-Aug-18 16:30N 26°14' W 079°23'5 9.7
2018-Aug-18 15:59N 26°15' W 079°17'  
Track history (hours):
 
Tides and Currents Weather Stations Pressure Air Temp Water Temp Dewpoint Dewpoint Depression Visibility Wind Speed Wind Dir Waves Ship Positions

Jpo Aquarius

Last reported at 2018-Aug-19 16:00 UTC. Time now 2018-Aug-20 16:49 UTC.
Position N 25°29' W 079°26'.

Length 207 m; draft 9.7 m.

Type: Ship. MMSI: 255805580.

Date/timePositionNaut miles runAvg speedWind from/ knotsBaromVisibWave heightAir tempDewpointWater temp
2018-Aug-19 16:00N 25°29' W 079°26'815.4
2018-Aug-19 15:30N 25°36' W 079°28'715.0
2018-Aug-19 15:00N 25°42' W 079°33'612.8
2018-Aug-19 14:30N 25°47' W 079°37'510.1
2018-Aug-19 14:00N 25°51' W 079°41'510.1
2018-Aug-19 13:31N 25°54' W 079°45'5 9.9
2018-Aug-19 13:01N 25°57' W 079°50'5 9.4
2018-Aug-19 12:31N 25°60' W 079°54'5 9.6
2018-Aug-19 12:00N 26°02' W 079°58'611.2
2018-Aug-19 11:31N 26°05' W 080°04'2 5.0
2018-Aug-19 11:00N 26°05' W 080°07'1 1.6
2018-Aug-19 10:30N 26°04' W 080°07'0 0.0
2018-Aug-19 09:53N 26°04' W 080°07'0 0.0
2018-Aug-19 09:23N 26°04' W 080°07'0 0.0
2018-Aug-19 09:00N 26°04' W 080°07'0 0.0
2018-Aug-19 08:22N 26°04' W 080°07'0 0.0
2018-Aug-19 07:52N 26°04' W 080°07'0 0.0
2018-Aug-19 07:25N 26°04' W 080°07'0 0.0
2018-Aug-19 06:55N 26°04' W 080°07'0 0.0
2018-Aug-19 06:28N 26°04' W 080°07'0 0.0
2018-Aug-19 05:59N 26°04' W 080°07'0 0.0
2018-Aug-19 05:29N 26°04' W 080°07'0 0.0
2018-Aug-19 04:50N 26°04' W 080°07'0 0.0
2018-Aug-19 04:20N 26°04' W 080°07'0 0.0
2018-Aug-19 03:53N 26°04' W 080°07'0 0.0
2018-Aug-19 03:23N 26°04' W 080°07'0 0.0
2018-Aug-19 02:53N 26°04' W 080°07'0 0.0
2018-Aug-19 02:20N 26°04' W 080°07'0 0.0
2018-Aug-19 01:53N 26°04' W 080°07'0 0.0
2018-Aug-19 01:29N 26°04' W 080°07'0 0.0
2018-Aug-19 00:58N 26°04' W 080°07'0 0.0
2018-Aug-19 00:22N 26°04' W 080°07'0 0.0
2018-Aug-18 23:55N 26°04' W 080°07'0 0.0
2018-Aug-18 23:25N 26°04' W 080°07'0 0.0
2018-Aug-18 22:55N 26°04' W 080°07'0 0.4
2018-Aug-18 22:30N 26°04' W 080°07'2 3.6
2018-Aug-18 22:00N 26°06' W 080°05'3 5.7
2018-Aug-18 21:30N 26°07' W 080°02'1 2.0
2018-Aug-18 21:00N 26°06' W 080°02'2 4.2
2018-Aug-18 20:30N 26°06' W 079°59'4 7.1
2018-Aug-18 20:00N 26°06' W 079°55'4 7.2
2018-Aug-18 19:30N 26°08' W 079°52'4 8.0
2018-Aug-18 19:00N 26°09' W 079°47'5 9.2
2018-Aug-18 18:30N 26°11' W 079°43'4 8.8
2018-Aug-18 18:00N 26°12' W 079°38'4 8.8
2018-Aug-18 17:30N 26°13' W 079°33'4 9.0
2018-Aug-18 17:00N 26°14' W 079°28'5 9.4
2018-Aug-18 16:30N 26°14' W 079°23'5 9.7
2018-Aug-18 15:59N 26°15' W 079°17'  

Dump ship's entire track history